Time;durP1;ratioP1;P1;durP2;ratioP2;P2;SDS_P1;SDS_P2;PMS_P1;PMS_P2;Temp;Humidity;BMP_temperature;BMP_pressure;BME280_temperature;BME280_humidity;BME280_pressure;Samples;Min_cycle;Max_cycle;Signal;HPM_P1;HPM_P2
2022/09/19 00:01:21;;;;;;;18.37;17.37;;;;;;;;;;5041783;28;20856;-79
2022/09/19 00:03:52;;;;;;;18.10;16.87;;;;;;;;;;5041399;28;20494;-79
2022/09/19 00:06:21;;;;;;;18.33;17.23;;;;;;;;;;5042215;28;20413;-81
2022/09/19 00:08:48;;;;;;;19.40;18.10;;;;;;;;;;5042881;28;20913;-81
2022/09/19 00:11:19;;;;;;;19.07;17.50;;;;;;;;;;5044542;28;20444;-81
2022/09/19 00:13:47;;;;;;;17.97;16.97;;;;;;;;;;5043014;28;20937;-80
2022/09/19 00:16:18;;;;;;;18.70;17.50;;;;;;;;;;5043862;28;20423;-81
2022/09/19 00:18:46;;;;;;;18.47;17.40;;;;;;;;;;5044685;28;20455;-80
2022/09/19 00:21:19;;;;;;;20.33;18.73;;;;;;;;;;5043111;28;20451;-80
2022/09/19 00:26:31;;;;;;;18.50;17.50;;;;;;;;;;5041746;28;20858;-80
2022/09/19 00:28:58;;;;;;;19.33;17.87;;;;;;;;;;5040576;28;20447;-81
2022/09/19 00:31:26;;;;;;;19.60;18.40;;;;;;;;;;5040426;28;20456;-81
2022/09/19 00:33:53;;;;;;;18.90;18.00;;;;;;;;;;5041375;28;20478;-81
2022/09/19 00:36:22;;;;;;;18.83;17.90;;;;;;;;;;5042238;28;20455;-79
2022/09/19 00:38:49;;;;;;;19.20;17.97;;;;;;;;;;5041588;28;20436;-81
2022/09/19 00:41:17;;;;;;;20.90;18.97;;;;;;;;;;5041394;28;20459;-80
2022/09/19 00:43:46;;;;;;;20.93;19.13;;;;;;;;;;5040409;28;20484;-81
2022/09/19 00:46:14;;;;;;;19.80;18.53;;;;;;;;;;5041003;28;20463;-80
2022/09/19 00:48:42;;;;;;;19.53;17.97;;;;;;;;;;5041691;28;20450;-80
2022/09/19 00:51:12;;;;;;;19.50;18.30;;;;;;;;;;5040456;28;20479;-80
2022/09/19 00:53:41;;;;;;;20.17;18.87;;;;;;;;;;5040847;28;20491;-81
2022/09/19 00:56:09;;;;;;;20.90;19.23;;;;;;;;;;5040869;28;20455;-79
2022/09/19 00:58:38;;;;;;;20.70;19.37;;;;;;;;;;5041690;28;20459;-79
2022/09/19 01:01:06;;;;;;;22.67;20.53;;;;;;;;;;5040342;28;20457;-80
2022/09/19 01:03:33;;;;;;;19.80;18.70;;;;;;;;;;5041006;28;20482;-79
2022/09/19 01:06:07;;;;;;;21.20;19.60;;;;;;;;;;5041355;28;20939;-80
2022/09/19 01:08:46;;;;;;;20.17;18.70;;;;;;;;;;5041281;28;20444;-80
2022/09/19 01:11:21;;;;;;;22.33;20.43;;;;;;;;;;5040778;28;20488;-79
2022/09/19 01:13:54;;;;;;;20.73;18.73;;;;;;;;;;5041437;28;20469;-81
2022/09/19 01:16:33;;;;;;;21.13;19.43;;;;;;;;;;5041567;28;20432;-80
2022/09/19 01:19:05;;;;;;;19.70;18.50;;;;;;;;;;5041587;28;20435;-80
2022/09/19 01:21:41;;;;;;;21.03;19.13;;;;;;;;;;5040746;28;20461;-80
2022/09/19 01:24:34;;;;;;;21.93;19.80;;;;;;;;;;5040712;28;20486;-79
2022/09/19 01:27:22;;;;;;;21.50;19.90;;;;;;;;;;5026107;28;20455;-79
2022/09/19 01:29:53;;;;;;;21.63;19.63;;;;;;;;;;5008007;28;20479;-80
2022/09/19 01:32:22;;;;;;;21.40;19.70;;;;;;;;;;5040630;28;20464;-79
2022/09/19 01:34:52;;;;;;;21.00;19.10;;;;;;;;;;5039704;28;20506;-80
2022/09/19 01:37:21;;;;;;;22.03;20.43;;;;;;;;;;5041100;28;20462;-80
2022/09/19 01:39:51;;;;;;;20.57;19.10;;;;;;;;;;5041347;28;20452;-79
2022/09/19 01:42:19;;;;;;;21.27;19.77;;;;;;;;;;5040612;28;20479;-80
2022/09/19 01:44:47;;;;;;;363.23;165.33;;;;;;;;;;5043596;28;20468;-80
2022/09/19 01:47:21;;;;;;;347.23;144.77;;;;;;;;;;5043956;28;20461;-80
2022/09/19 01:49:52;;;;;;;20.33;18.80;;;;;;;;;;5044258;28;20568;-81
2022/09/19 01:52:25;;;;;;;21.13;19.50;;;;;;;;;;5044406;28;20479;-80
2022/09/19 01:54:59;;;;;;;19.87;18.53;;;;;;;;;;5044468;28;20501;-80
2022/09/19 01:57:31;;;;;;;20.97;19.30;;;;;;;;;;5044593;28;20463;-81
2022/09/19 02:00:16;;;;;;;20.73;19.23;;;;;;;;;;5044872;28;20799;-81
2022/09/19 02:02:57;;;;;;;20.27;18.80;;;;;;;;;;5043607;28;20471;-80
2022/09/19 02:05:28;;;;;;;20.60;19.10;;;;;;;;;;5044336;28;20891;-79
2022/09/19 02:08:01;;;;;;;23.20;20.00;;;;;;;;;;5044138;28;20423;-81
2022/09/19 02:10:32;;;;;;;21.50;19.87;;;;;;;;;;5044461;28;20994;-80
2022/09/19 02:13:03;;;;;;;21.63;19.43;;;;;;;;;;5043167;28;20490;-80
2022/09/19 02:15:32;;;;;;;21.33;19.73;;;;;;;;;;5043862;28;20448;-79
2022/09/19 02:18:04;;;;;;;21.90;19.73;;;;;;;;;;5043403;28;21006;-80
2022/09/19 02:20:34;;;;;;;21.60;19.80;;;;;;;;;;5044150;28;20427;-81
2022/09/19 02:23:04;;;;;;;22.43;20.33;;;;;;;;;;5043665;28;20472;-81
2022/09/19 02:25:35;;;;;;;20.67;19.33;;;;;;;;;;5043729;28;20818;-79
2022/09/19 02:28:05;;;;;;;25.17;21.07;;;;;;;;;;5043994;28;20433;-80
2022/09/19 02:30:33;;;;;;;20.17;18.67;;;;;;;;;;5043789;28;20995;-80
2022/09/19 02:33:07;;;;;;;21.93;20.07;;;;;;;;;;5042575;28;20484;-80
2022/09/19 02:35:38;;;;;;;21.70;20.10;;;;;;;;;;5043292;28;20448;-80
2022/09/19 02:38:09;;;;;;;22.20;20.60;;;;;;;;;;5043987;28;20494;-79
2022/09/19 02:40:40;;;;;;;21.37;19.67;;;;;;;;;;5043726;28;20436;-79
2022/09/19 02:43:14;;;;;;;20.53;19.20;;;;;;;;;;5042140;28;20526;-81
2022/09/19 02:45:44;;;;;;;21.00;19.40;;;;;;;;;;5042537;28;20968;-80
2022/09/19 02:48:15;;;;;;;20.33;18.73;;;;;;;;;;5043150;28;20564;-80
2022/09/19 02:50:47;;;;;;;21.80;19.93;;;;;;;;;;5043341;28;20482;-79
2022/09/19 02:53:17;;;;;;;21.80;19.93;;;;;;;;;;5042590;28;20485;-79
2022/09/19 02:55:47;;;;;;;20.90;19.33;;;;;;;;;;5043548;28;20478;-80
2022/09/19 02:58:15;;;;;;;21.03;19.40;;;;;;;;;;5043394;28;20447;-79
2022/09/19 03:00:46;;;;;;;20.33;18.83;;;;;;;;;;5043206;28;20450;-80
2022/09/19 03:06:02;;;;;;;22.63;20.23;;;;;;;;;;5043185;28;20415;-80
2022/09/19 03:08:33;;;;;;;22.97;20.63;;;;;;;;;;5042447;28;20934;-80
2022/09/19 03:11:01;;;;;;;22.87;20.63;;;;;;;;;;5042007;28;20475;-80
2022/09/19 03:13:29;;;;;;;22.23;20.27;;;;;;;;;;5043265;28;20574;-81
2022/09/19 03:15:58;;;;;;;24.33;20.53;;;;;;;;;;5042614;28;20440;-80
2022/09/19 03:18:29;;;;;;;27.23;21.70;;;;;;;;;;5042990;28;20880;-80
2022/09/19 03:20:58;;;;;;;22.73;20.83;;;;;;;;;;5042525;28;20943;-81
2022/09/19 03:23:30;;;;;;;22.30;20.47;;;;;;;;;;5043481;28;20475;-80
2022/09/19 03:25:57;;;;;;;19.93;18.47;;;;;;;;;;5043579;28;20531;-79
2022/09/19 03:28:24;;;;;;;21.50;19.70;;;;;;;;;;5043198;28;20447;-80
2022/09/19 03:30:56;;;;;;;21.17;19.33;;;;;;;;;;5042024;28;20476;-80
2022/09/19 03:33:24;;;;;;;22.07;20.00;;;;;;;;;;5042253;28;20524;-81
2022/09/19 03:35:56;;;;;;;22.27;20.07;;;;;;;;;;5042874;28;20479;-80
2022/09/19 03:38:23;;;;;;;20.93;19.30;;;;;;;;;;5043167;28;20424;-81
2022/09/19 03:40:50;;;;;;;20.00;18.53;;;;;;;;;;5042985;28;20811;-80
2022/09/19 03:43:18;;;;;;;22.70;20.73;;;;;;;;;;5041758;28;20465;-81
2022/09/19 03:45:45;;;;;;;22.60;20.50;;;;;;;;;;5042354;28;20498;-80
2022/09/19 03:48:12;;;;;;;22.43;20.23;;;;;;;;;;5041625;28;20426;-80
2022/09/19 03:50:40;;;;;;;22.23;20.27;;;;;;;;;;5041546;28;20969;-80
2022/09/19 03:53:09;;;;;;;22.40;20.30;;;;;;;;;;5041592;28;20474;-79
2022/09/19 03:55:40;;;;;;;23.53;21.40;;;;;;;;;;5042433;28;20463;-80
2022/09/19 03:58:07;;;;;;;20.70;19.23;;;;;;;;;;5042344;28;20462;-79
2022/09/19 04:00:34;;;;;;;21.53;19.53;;;;;;;;;;5042150;28;20449;-80
2022/09/19 04:03:02;;;;;;;24.00;20.13;;;;;;;;;;5041000;28;20476;-80
2022/09/19 04:05:30;;;;;;;22.33;20.37;;;;;;;;;;5042127;28;20920;-79
2022/09/19 04:07:57;;;;;;;20.97;19.50;;;;;;;;;;5042917;28;20475;-80
2022/09/19 04:10:26;;;;;;;22.40;20.40;;;;;;;;;;5043440;28;20494;-81
2022/09/19 04:12:56;;;;;;;23.27;20.97;;;;;;;;;;5040026;28;20518;-80
2022/09/19 04:15:23;;;;;;;22.53;20.17;;;;;;;;;;5042295;28;20454;-80
2022/09/19 04:17:51;;;;;;;22.37;20.73;;;;;;;;;;5041618;28;20443;-80
2022/09/19 04:20:18;;;;;;;322.17;176.27;;;;;;;;;;5042543;28;20507;-80
2022/09/19 04:22:46;;;;;;;415.05;179.10;;;;;;;;;;5040627;28;20471;-80
2022/09/19 04:25:15;;;;;;;363.87;178.20;;;;;;;;;;5042296;28;20192;-81
2022/09/19 04:27:45;;;;;;;270.25;163.10;;;;;;;;;;5042721;28;20452;-80
2022/09/19 04:30:14;;;;;;;120.20;98.57;;;;;;;;;;5041402;28;20629;-80
2022/09/19 04:32:42;;;;;;;22.13;20.23;;;;;;;;;;5054807;28;20461;-82
2022/09/19 04:35:09;;;;;;;406.08;175.70;;;;;;;;;;5052068;28;20537;-81
2022/09/19 04:37:37;;;;;;;429.92;172.00;;;;;;;;;;5038949;28;20291;-82
2022/09/19 04:40:04;;;;;;;21.70;19.70;;;;;;;;;;5039028;28;20197;-81
2022/09/19 04:42:34;;;;;;;435.33;207.00;;;;;;;;;;5039514;28;20480;-82
2022/09/19 04:45:03;;;;;;;345.50;187.50;;;;;;;;;;5040496;28;20236;-82
2022/09/19 04:47:32;;;;;;;23.63;21.63;;;;;;;;;;5039031;28;20474;-81
2022/09/19 04:50:00;;;;;;;23.50;21.20;;;;;;;;;;5039037;28;20455;-82
2022/09/19 04:52:27;;;;;;;21.50;19.73;;;;;;;;;;5038575;28;20475;-83
2022/09/19 04:54:54;;;;;;;24.53;21.73;;;;;;;;;;5039798;28;20458;-81
2022/09/19 04:57:27;;;;;;;22.37;20.10;;;;;;;;;;5039982;28;20451;-82
2022/09/19 04:59:55;;;;;;;23.10;21.37;;;;;;;;;;5038674;28;20436;-82
2022/09/19 05:02:23;;;;;;;25.33;23.17;;;;;;;;;;5039148;28;20491;-81
2022/09/19 05:04:51;;;;;;;23.67;21.63;;;;;;;;;;5039558;28;20801;-82
2022/09/19 05:07:19;;;;;;;23.37;20.90;;;;;;;;;;5038898;28;20887;-81
2022/09/19 05:09:46;;;;;;;22.97;21.00;;;;;;;;;;5039753;28;20451;-81
2022/09/19 05:12:13;;;;;;;22.43;20.60;;;;;;;;;;5038620;28;20494;-81
2022/09/19 05:14:41;;;;;;;23.27;21.07;;;;;;;;;;5038644;28;20471;-82
2022/09/19 05:17:08;;;;;;;22.37;20.60;;;;;;;;;;5042956;28;20459;-80
2022/09/19 05:19:37;;;;;;;22.20;20.57;;;;;;;;;;5046288;28;20439;-79
2022/09/19 05:22:04;;;;;;;22.13;20.43;;;;;;;;;;5046662;28;20468;-80
2022/09/19 05:24:31;;;;;;;20.50;18.87;;;;;;;;;;5052723;28;20476;-79
2022/09/19 05:27:01;;;;;;;22.87;20.70;;;;;;;;;;5064668;28;20534;-80
2022/09/19 05:29:28;;;;;;;22.77;21.17;;;;;;;;;;5065616;28;20454;-79
2022/09/19 05:32:00;;;;;;;31.40;22.23;;;;;;;;;;5065706;28;20481;-81
2022/09/19 05:34:28;;;;;;;22.57;20.47;;;;;;;;;;5065781;28;20510;-80
2022/09/19 05:36:57;;;;;;;24.73;21.87;;;;;;;;;;5065686;28;20441;-80
2022/09/19 05:39:24;;;;;;;23.07;20.70;;;;;;;;;;5065668;28;20471;-80
2022/09/19 05:41:52;;;;;;;23.63;21.10;;;;;;;;;;5063031;28;20444;-80
2022/09/19 05:44:21;;;;;;;22.30;20.30;;;;;;;;;;5065569;28;20499;-80
2022/09/19 05:46:48;;;;;;;21.93;20.00;;;;;;;;;;5065627;28;20443;-80
2022/09/19 05:49:15;;;;;;;21.50;19.60;;;;;;;;;;5065714;28;20919;-80
2022/09/19 05:51:43;;;;;;;23.27;21.20;;;;;;;;;;5065313;28;20478;-81
2022/09/19 05:54:10;;;;;;;23.57;20.90;;;;;;;;;;5062364;28;20462;-79
2022/09/19 05:56:37;;;;;;;23.13;20.97;;;;;;;;;;5062794;28;20462;-79
2022/09/19 05:59:05;;;;;;;22.17;20.20;;;;;;;;;;5062933;28;20525;-80
2022/09/19 06:01:32;;;;;;;21.90;19.83;;;;;;;;;;5062015;28;20442;-80
2022/09/19 06:04:01;;;;;;;22.27;20.13;;;;;;;;;;5062761;28;20481;-80
2022/09/19 06:06:28;;;;;;;24.13;19.90;;;;;;;;;;5062622;28;20807;-79
2022/09/19 06:08:58;;;;;;;23.70;21.60;;;;;;;;;;5060888;28;20453;-79
2022/09/19 06:11:27;;;;;;;24.03;20.50;;;;;;;;;;5061453;28;20505;-82
2022/09/19 06:16:41;;;;;;;24.73;21.90;;;;;;;;;;5064318;28;20492;-84
2022/09/19 06:19:09;;;;;;;22.47;20.63;;;;;;;;;;5061222;28;20484;-81
2022/09/19 06:21:36;;;;;;;23.47;20.70;;;;;;;;;;5064104;28;20474;-78
2022/09/19 06:25:04;;;;;;;21.60;20.00;;;;;;;;;;5118518;27;21158;-79
2022/09/19 06:27:31;;;;;;;22.10;19.93;;;;;;;;;;5114635;28;20447;-79
2022/09/19 06:30:01;;;;;;;445.20;195.32;;;;;;;;;;5096355;28;20476;-86
2022/09/19 06:32:28;;;;;;;460.40;222.35;;;;;;;;;;5090661;28;20305;-75
2022/09/19 06:34:55;;;;;;;318.03;181.37;;;;;;;;;;5091668;28;20532;-75
2022/09/19 06:37:23;;;;;;;392.25;194.02;;;;;;;;;;5092042;28;20446;-77
2022/09/19 06:39:50;;;;;;;408.75;168.30;;;;;;;;;;5098069;28;20205;-76
2022/09/19 06:42:19;;;;;;;434.27;164.55;;;;;;;;;;5110405;28;20213;-76
2022/09/19 06:44:47;;;;;;;434.30;159.02;;;;;;;;;;5112427;28;20279;-81
2022/09/19 06:47:14;;;;;;;427.95;163.65;;;;;;;;;;5112669;27;20210;-75
2022/09/19 06:49:41;;;;;;;431.20;176.27;;;;;;;;;;5114067;28;20209;-74
2022/09/19 06:52:09;;;;;;;496.73;207.27;;;;;;;;;;5117110;28;20234;-76
2022/09/19 06:54:36;;;;;;;411.92;143.35;;;;;;;;;;5109887;28;20688;-75
2022/09/19 06:57:03;;;;;;;430.02;175.70;;;;;;;;;;5109686;28;20570;-75
2022/09/19 06:59:32;;;;;;;22.60;20.40;;;;;;;;;;5112388;28;20217;-79
2022/09/19 07:02:00;;;;;;;27.07;21.13;;;;;;;;;;5109858;28;20890;-76
2022/09/19 07:04:27;;;;;;;24.60;21.10;;;;;;;;;;5108050;28;20568;-77
2022/09/19 07:06:56;;;;;;;22.40;20.40;;;;;;;;;;5108049;28;20447;-75
2022/09/19 07:09:24;;;;;;;25.57;21.00;;;;;;;;;;5109699;28;20463;-75
2022/09/19 07:11:56;;;;;;;24.53;21.73;;;;;;;;;;5109324;28;20479;-76
2022/09/19 07:14:24;;;;;;;31.63;19.90;;;;;;;;;;5110122;28;20428;-75
2022/09/19 07:16:53;;;;;;;21.00;19.70;;;;;;;;;;5109805;28;20454;-76
2022/09/19 07:19:20;;;;;;;21.50;19.30;;;;;;;;;;5109505;28;20471;-76
2022/09/19 07:21:47;;;;;;;21.37;19.67;;;;;;;;;;5109544;28;20451;-76
2022/09/19 07:24:15;;;;;;;21.97;20.00;;;;;;;;;;5109568;28;21112;-75
2022/09/19 07:26:42;;;;;;;21.77;19.93;;;;;;;;;;5109861;28;20446;-75
2022/09/19 07:29:10;;;;;;;21.57;19.57;;;;;;;;;;5109550;28;20475;-76
2022/09/19 07:31:37;;;;;;;28.83;20.83;;;;;;;;;;5109505;28;20444;-75
2022/09/19 07:34:06;;;;;;;25.03;22.63;;;;;;;;;;5111278;28;20961;-76
2022/09/19 07:36:33;;;;;;;20.80;18.83;;;;;;;;;;5096049;28;20444;-77
2022/09/19 07:39:01;;;;;;;21.20;19.57;;;;;;;;;;5096139;28;20444;-77
2022/09/19 07:41:28;;;;;;;21.37;19.67;;;;;;;;;;5096367;28;20445;-82
2022/09/19 07:43:56;;;;;;;21.00;19.37;;;;;;;;;;5095854;28;20471;-76
2022/09/19 07:46:23;;;;;;;20.87;19.13;;;;;;;;;;5096136;28;20945;-79
2022/09/19 07:48:53;;;;;;;22.13;20.63;;;;;;;;;;5096379;28;20453;-76
2022/09/19 07:51:22;;;;;;;22.73;20.40;;;;;;;;;;5096141;28;20458;-76
2022/09/19 07:53:50;;;;;;;21.83;20.07;;;;;;;;;;5095554;28;20475;-76
2022/09/19 07:56:18;;;;;;;20.80;18.83;;;;;;;;;;5095469;28;20449;-76
2022/09/19 07:58:45;;;;;;;20.73;19.13;;;;;;;;;;5095731;28;20459;-76
2022/09/19 08:01:12;;;;;;;21.03;19.20;;;;;;;;;;5095241;28;20452;-75
2022/09/19 08:03:40;;;;;;;19.47;17.70;;;;;;;;;;5095205;28;20480;-77
2022/09/19 08:06:07;;;;;;;23.30;18.87;;;;;;;;;;5095448;28;20453;-77
2022/09/19 08:08:36;;;;;;;20.13;18.50;;;;;;;;;;5096364;28;20479;-78
2022/09/19 08:11:05;;;;;;;20.70;19.17;;;;;;;;;;5094800;28;20480;-76
2022/09/19 08:13:32;;;;;;;19.67;18.27;;;;;;;;;;5095495;28;20987;-77
2022/09/19 08:15:59;;;;;;;20.30;18.90;;;;;;;;;;5094929;28;20492;-77
2022/09/19 08:18:27;;;;;;;21.40;19.37;;;;;;;;;;5095281;28;20415;-76
2022/09/19 08:20:54;;;;;;;22.93;20.07;;;;;;;;;;5094895;28;20863;-76
2022/09/19 08:23:22;;;;;;;19.67;18.07;;;;;;;;;;5094459;28;20474;-75
2022/09/19 08:25:53;;;;;;;22.13;20.23;;;;;;;;;;5095366;28;20908;-75
2022/09/19 08:28:21;;;;;;;21.23;19.30;;;;;;;;;;5096899;28;20920;-76
2022/09/19 08:30:49;;;;;;;20.40;18.90;;;;;;;;;;5097100;28;20475;-77
2022/09/19 08:33:16;;;;;;;21.40;19.20;;;;;;;;;;5096746;28;20593;-76
2022/09/19 08:35:44;;;;;;;21.87;19.83;;;;;;;;;;5097554;28;20451;-78
2022/09/19 08:38:12;;;;;;;20.43;18.97;;;;;;;;;;5096446;28;20494;-76
2022/09/19 08:40:48;;;;;;;21.07;19.10;;;;;;;;;;5096038;28;20449;-78
2022/09/19 08:43:20;;;;;;;19.10;17.73;;;;;;;;;;5095011;28;20896;-76
2022/09/19 08:46:01;;;;;;;20.17;18.67;;;;;;;;;;5095053;28;20444;-76
2022/09/19 08:48:30;;;;;;;19.10;17.90;;;;;;;;;;5095013;28;20432;-77
2022/09/19 08:50:59;;;;;;;19.90;18.67;;;;;;;;;;5095263;28;20477;-77
2022/09/19 08:53:28;;;;;;;21.60;20.20;;;;;;;;;;5094773;28;20951;-75
2022/09/19 08:55:59;;;;;;;21.00;19.10;;;;;;;;;;5094584;28;20448;-76
2022/09/19 08:58:29;;;;;;;19.00;17.60;;;;;;;;;;5094560;28;20437;-77
2022/09/19 09:00:56;;;;;;;20.77;18.63;;;;;;;;;;5093443;28;20456;-76
2022/09/19 09:03:31;;;;;;;19.77;18.23;;;;;;;;;;5095395;28;20987;-77
2022/09/19 09:06:04;;;;;;;19.73;18.23;;;;;;;;;;5095252;28;20451;-75
2022/09/19 09:08:39;;;;;;;19.00;17.50;;;;;;;;;;5095090;28;20500;-76
2022/09/19 09:11:11;;;;;;;20.37;18.73;;;;;;;;;;5094655;28;20456;-76
2022/09/19 09:13:46;;;;;;;18.83;17.67;;;;;;;;;;5094459;28;20988;-76
2022/09/19 09:16:18;;;;;;;19.53;18.10;;;;;;;;;;5094449;28;20456;-76
2022/09/19 09:18:52;;;;;;;19.73;18.13;;;;;;;;;;5095009;28;20501;-76
2022/09/19 09:21:25;;;;;;;24.60;21.80;;;;;;;;;;5092634;28;20430;-79
2022/09/19 09:23:57;;;;;;;21.17;19.27;;;;;;;;;;5076370;28;20488;-77
2022/09/19 09:26:26;;;;;;;20.90;18.80;;;;;;;;;;5076208;28;20433;-80
2022/09/19 09:28:59;;;;;;;21.10;18.90;;;;;;;;;;5077977;28;20803;-80
2022/09/19 09:31:27;;;;;;;19.50;18.10;;;;;;;;;;5077201;28;20476;-80
2022/09/19 09:33:57;;;;;;;19.57;17.63;;;;;;;;;;5078331;28;20483;-80
2022/09/19 09:36:26;;;;;;;23.80;17.97;;;;;;;;;;5077608;28;20454;-75
2022/09/19 09:38:56;;;;;;;20.60;18.80;;;;;;;;;;5076296;28;20446;-75
2022/09/19 09:41:45;;;;;;;18.83;17.73;;;;;;;;;;5074009;28;20427;-75
2022/09/19 09:44:23;;;;;;;20.07;18.50;;;;;;;;;;5073306;28;21001;-75
2022/09/19 09:46:54;;;;;;;20.57;18.57;;;;;;;;;;5074652;28;20438;-75
2022/09/19 09:49:22;;;;;;;21.40;19.30;;;;;;;;;;5073785;28;20923;-75
2022/09/19 09:51:54;;;;;;;23.00;20.27;;;;;;;;;;5074058;28;20473;-75
2022/09/19 09:57:16;;;;;;;21.37;19.53;;;;;;;;;;5073555;28;20515;-75
2022/09/19 10:05:33;;;;;;;22.33;20.23;;;;;;;;;;5072055;28;20504;-76
2022/09/19 10:08:03;;;;;;;23.80;19.50;;;;;;;;;;5071550;28;20805;-75
2022/09/19 10:10:32;;;;;;;21.97;19.93;;;;;;;;;;5072053;28;20450;-75
2022/09/19 10:13:02;;;;;;;21.33;19.57;;;;;;;;;;5075685;28;20459;-76
2022/09/19 10:15:31;;;;;;;20.70;19.30;;;;;;;;;;5072613;28;20465;-75
2022/09/19 10:18:06;;;;;;;20.53;19.00;;;;;;;;;;5075067;28;20482;-77
2022/09/19 10:20:37;;;;;;;20.60;19.00;;;;;;;;;;5073845;28;20517;-77
2022/09/19 10:23:05;;;;;;;19.20;18.00;;;;;;;;;;5074282;28;20516;-85
2022/09/19 10:25:32;;;;;;;20.10;18.47;;;;;;;;;;5075101;28;20488;-80
2022/09/19 10:28:04;;;;;;;20.63;18.70;;;;;;;;;;5077326;28;20466;-83
2022/09/19 10:30:37;;;;;;;19.60;18.23;;;;;;;;;;5077203;28;20432;-81
2022/09/19 10:33:17;;;;;;;19.17;17.77;;;;;;;;;;5076857;28;20547;-81
2022/09/19 10:35:45;;;;;;;19.40;17.90;;;;;;;;;;5091199;28;20451;-80
2022/09/19 10:38:13;;;;;;;19.27;18.00;;;;;;;;;;5096427;28;20453;-74
2022/09/19 10:40:52;;;;;;;19.30;17.93;;;;;;;;;;5092921;28;20504;-75
2022/09/19 10:43:22;;;;;;;19.70;17.80;;;;;;;;;;5092772;28;20471;-75
2022/09/19 10:45:51;;;;;;;23.53;19.30;;;;;;;;;;5094351;28;20497;-74
2022/09/19 10:48:23;;;;;;;29.80;22.80;;;;;;;;;;5093396;28;20527;-74
2022/09/19 10:50:50;;;;;;;21.93;19.30;;;;;;;;;;5093056;28;20536;-75
2022/09/19 10:53:22;;;;;;;20.00;18.03;;;;;;;;;;5092575;28;20840;-77
2022/09/19 10:55:50;;;;;;;19.80;18.23;;;;;;;;;;5093899;28;20419;-77
2022/09/19 10:58:19;;;;;;;19.67;17.97;;;;;;;;;;5094062;28;20873;-75
2022/09/19 11:00:51;;;;;;;19.13;17.70;;;;;;;;;;5092462;28;20447;-75
2022/09/19 11:03:25;;;;;;;19.83;18.23;;;;;;;;;;5093006;28;20542;-75
2022/09/19 11:06:10;;;;;;;19.83;18.53;;;;;;;;;;5102645;28;20487;-74
2022/09/19 11:08:43;;;;;;;21.67;19.77;;;;;;;;;;5102025;28;20448;-75
2022/09/19 11:11:32;;;;;;;21.30;19.70;;;;;;;;;;5102263;28;20461;-74
2022/09/19 11:14:09;;;;;;;22.37;20.30;;;;;;;;;;5105509;28;20508;-75
2022/09/19 11:16:39;;;;;;;21.30;19.53;;;;;;;;;;5104859;28;20409;-75
2022/09/19 11:19:14;;;;;;;19.90;18.40;;;;;;;;;;5103634;28;20472;-75
2022/09/19 11:21:48;;;;;;;20.77;19.17;;;;;;;;;;5103816;28;20504;-75
2022/09/19 11:24:24;;;;;;;22.10;20.33;;;;;;;;;;5103827;28;20816;-74
2022/09/19 11:27:03;;;;;;;21.83;19.73;;;;;;;;;;5103035;28;20435;-76
2022/09/19 11:29:49;;;;;;;23.83;21.20;;;;;;;;;;5108553;28;20426;-75
2022/09/19 11:32:26;;;;;;;21.30;19.50;;;;;;;;;;5106500;28;20462;-81
2022/09/19 11:34:57;;;;;;;21.50;20.17;;;;;;;;;;5106539;28;20458;-75
2022/09/19 11:37:29;;;;;;;20.73;19.33;;;;;;;;;;5109189;28;20435;-78
2022/09/19 11:40:03;;;;;;;20.27;18.63;;;;;;;;;;5113862;28;21000;-75
2022/09/19 11:42:36;;;;;;;22.67;20.73;;;;;;;;;;5111626;28;20460;-76
2022/09/19 11:45:14;;;;;;;21.40;19.60;;;;;;;;;;5111042;28;20602;-76
2022/09/19 11:48:01;;;;;;;47.27;44.33;;;;;;;;;;5103970;28;20975;-76
2022/09/19 11:50:39;;;;;;;52.10;47.87;;;;;;;;;;5101405;28;20426;-80
2022/09/19 11:53:31;;;;;;;55.20;50.67;;;;;;;;;;5089402;28;20906;-76
2022/09/19 11:56:03;;;;;;;49.40;46.20;;;;;;;;;;5065175;28;20501;-75
2022/09/19 11:58:34;;;;;;;50.37;46.57;;;;;;;;;;5084503;28;20445;-75
2022/09/19 12:01:06;;;;;;;57.20;52.17;;;;;;;;;;5093448;28;20441;-76
2022/09/19 12:03:45;;;;;;;50.97;47.87;;;;;;;;;;5093253;28;20444;-74
2022/09/19 12:06:18;;;;;;;49.03;46.13;;;;;;;;;;5093481;28;20512;-75
2022/09/19 12:09:00;;;;;;;52.13;48.13;;;;;;;;;;5095000;28;20429;-74
2022/09/19 12:11:30;;;;;;;49.13;46.40;;;;;;;;;;5076944;28;20453;-74
2022/09/19 12:13:59;;;;;;;51.57;48.40;;;;;;;;;;5073807;28;20470;-74
2022/09/19 12:16:30;;;;;;;51.93;49.00;;;;;;;;;;5074840;28;20446;-74
2022/09/19 12:18:59;;;;;;;54.10;51.00;;;;;;;;;;5074913;28;20480;-74
2022/09/19 12:21:31;;;;;;;55.50;52.17;;;;;;;;;;5073729;28;20454;-74
2022/09/19 12:26:49;;;;;;;50.87;47.70;;;;;;;;;;5075923;28;20492;-81
2022/09/19 12:29:21;;;;;;;57.53;54.00;;;;;;;;;;5075456;28;20429;-74
2022/09/19 12:31:50;;;;;;;55.67;52.07;;;;;;;;;;5075709;28;20800;-83
2022/09/19 12:34:28;;;;;;;56.47;52.90;;;;;;;;;;5074873;28;20933;-75
2022/09/19 12:36:59;;;;;;;55.53;52.50;;;;;;;;;;5074602;28;20553;-78
2022/09/19 12:39:32;;;;;;;56.70;53.70;;;;;;;;;;5075577;28;20417;-78
2022/09/19 12:42:02;;;;;;;49.53;46.50;;;;;;;;;;5072686;28;20504;-74
2022/09/19 12:44:34;;;;;;;50.93;48.33;;;;;;;;;;5073059;28;20462;-75
2022/09/19 12:47:04;;;;;;;48.30;45.80;;;;;;;;;;5074359;28;20455;-75
2022/09/19 12:49:36;;;;;;;52.07;49.20;;;;;;;;;;5074991;28;20481;-80
2022/09/19 12:52:09;;;;;;;56.67;53.20;;;;;;;;;;5072850;28;20483;-74
2022/09/19 12:54:40;;;;;;;53.17;49.60;;;;;;;;;;5075768;28;20417;-84
2022/09/19 12:57:10;;;;;;;49.73;46.30;;;;;;;;;;5073916;28;20426;-76
2022/09/19 12:59:38;;;;;;;54.23;50.50;;;;;;;;;;5074328;28;20432;-76
2022/09/19 13:02:14;;;;;;;55.90;52.20;;;;;;;;;;5072838;28;20439;-76
2022/09/19 13:04:43;;;;;;;57.60;54.20;;;;;;;;;;5073977;28;20423;-76
2022/09/19 13:07:14;;;;;;;56.60;53.50;;;;;;;;;;5073928;28;20449;-78
2022/09/19 13:09:48;;;;;;;60.53;57.10;;;;;;;;;;5073933;28;20492;-78
2022/09/19 13:12:18;;;;;;;60.30;56.90;;;;;;;;;;5077317;28;20470;-79
2022/09/19 13:14:47;;;;;;;62.33;58.57;;;;;;;;;;5079238;28;20431;-80
2022/09/19 13:25:37;;;;;;;56.87;53.70;;;;;;;;;;5080127;28;20939;-79
2022/09/19 13:28:23;;;;;;;53.23;50.53;;;;;;;;;;5080831;28;20445;-82
2022/09/19 13:30:51;;;;;;;54.47;51.37;;;;;;;;;;5075735;28;20528;-80
2022/09/19 13:33:22;;;;;;;52.57;49.80;;;;;;;;;;5075887;28;20488;-77
2022/09/19 13:35:51;;;;;;;51.50;48.70;;;;;;;;;;5073710;28;20473;-79
2022/09/19 13:38:25;;;;;;;52.53;49.43;;;;;;;;;;5074175;28;20452;-78
2022/09/19 13:40:57;;;;;;;47.20;44.70;;;;;;;;;;5073483;28;20437;-78
2022/09/19 13:43:29;;;;;;;45.00;42.50;;;;;;;;;;5073140;28;20565;-76
2022/09/19 13:46:00;;;;;;;43.43;40.60;;;;;;;;;;5073709;28;20508;-77
2022/09/19 13:48:33;;;;;;;57.43;54.23;;;;;;;;;;5073303;28;20442;-77
2022/09/19 13:51:04;;;;;;;53.30;49.70;;;;;;;;;;5072531;28;20404;-77
2022/09/19 13:53:36;;;;;;;47.47;44.37;;;;;;;;;;5073125;28;20473;-77
2022/09/19 13:56:05;;;;;;;41.93;39.67;;;;;;;;;;5072973;28;20952;-77
2022/09/19 13:58:33;;;;;;;41.00;38.90;;;;;;;;;;5073121;28;20488;-77
2022/09/19 14:01:09;;;;;;;41.57;38.90;;;;;;;;;;5072232;28;20442;-77
2022/09/19 14:03:38;;;;;;;37.03;34.87;;;;;;;;;;5072711;28;20484;-77
2022/09/19 14:06:20;;;;;;;36.77;34.80;;;;;;;;;;5072907;28;20448;-77
2022/09/19 14:08:52;;;;;;;35.80;34.00;;;;;;;;;;5072741;28;20440;-78
2022/09/19 14:11:30;;;;;;;32.57;30.63;;;;;;;;;;5072556;28;20521;-77
2022/09/19 14:13:58;;;;;;;35.30;32.93;;;;;;;;;;5072885;28;20801;-78
2022/09/19 14:16:33;;;;;;;31.80;29.70;;;;;;;;;;5072817;28;20451;-77
2022/09/19 14:19:00;;;;;;;32.80;30.70;;;;;;;;;;5072594;28;20461;-77
2022/09/19 14:21:55;;;;;;;30.20;28.20;;;;;;;;;;5072395;28;20437;-77
2022/09/19 14:24:41;;;;;;;30.03;28.33;;;;;;;;;;5072580;28;20822;-77
2022/09/19 14:27:17;;;;;;;29.97;27.90;;;;;;;;;;5072600;28;20481;-77
2022/09/19 14:29:49;;;;;;;29.37;27.43;;;;;;;;;;5072702;28;20429;-77
2022/09/19 14:32:23;;;;;;;29.73;27.70;;;;;;;;;;5072579;28;20448;-77
2022/09/19 14:35:05;;;;;;;30.17;27.93;;;;;;;;;;5072904;28;20407;-78
2022/09/19 14:37:40;;;;;;;29.63;27.83;;;;;;;;;;5070574;28;20464;-77
2022/09/19 14:40:14;;;;;;;27.90;26.40;;;;;;;;;;5074373;28;20429;-78
2022/09/19 14:43:03;;;;;;;26.00;24.30;;;;;;;;;;5075876;28;20472;-76
2022/09/19 14:45:46;;;;;;;22.60;21.30;;;;;;;;;;5074720;28;20504;-77
2022/09/19 14:48:19;;;;;;;20.63;19.43;;;;;;;;;;5064815;28;20541;-78
2022/09/19 14:50:49;;;;;;;20.57;19.03;;;;;;;;;;5077861;28;20429;-76
2022/09/19 14:53:25;;;;;;;21.47;19.97;;;;;;;;;;5075781;28;20550;-77
2022/09/19 14:55:53;;;;;;;20.60;19.20;;;;;;;;;;5077173;28;20791;-78
2022/09/19 14:58:26;;;;;;;22.03;20.37;;;;;;;;;;5075915;28;20968;-77
2022/09/19 15:00:55;;;;;;;20.67;19.30;;;;;;;;;;5075073;28;20495;-78
2022/09/19 15:03:22;;;;;;;19.10;18.10;;;;;;;;;;5074981;28;20477;-78
2022/09/19 15:05:50;;;;;;;20.07;18.70;;;;;;;;;;5076369;28;20517;-77